Time;durP1;ratioP1;P1;durP2;ratioP2;P2;SDS_P1;SDS_P2;PMS_P1;PMS_P2;Temp;Humidity;BMP_temperature;BMP_pressure;BME280_temperature;BME280_humidity;BME280_pressure;Samples;Min_cycle;Max_cycle;Signal;HPM_P1;HPM_P2
2022/10/26 00:00:45;;;;;;;14.95;6.75;;;;;;;12.09;84.53;101268.40;1735858;81;21069;-81
2022/10/26 00:03:14;;;;;;;15.08;7.22;;;;;;;12.03;84.49;101266.48;1743656;81;21050;-81
2022/10/26 00:05:41;;;;;;;15.93;7.58;;;;;;;11.98;84.53;101272.05;1763892;80;21100;-81
2022/10/26 00:08:08;;;;;;;11.90;6.12;;;;;;;11.95;84.54;101272.39;1768841;80;21776;-82
2022/10/26 00:10:36;;;;;;;15.53;7.00;;;;;;;11.90;84.55;101278.88;1728886;81;21103;-81
2022/10/26 00:13:04;;;;;;;15.35;7.22;;;;;;;11.87;84.60;101276.11;1757317;80;21015;-81
2022/10/26 00:15:31;;;;;;;14.70;7.40;;;;;;;11.84;84.63;101279.56;1763150;80;20967;-81
2022/10/26 00:17:57;;;;;;;16.50;7.85;;;;;;;11.81;84.68;101276.83;1765543;80;21897;-84
2022/10/26 00:20:24;;;;;;;13.78;7.03;;;;;;;11.80;84.68;101277.66;1739313;80;22475;-84
2022/10/26 00:22:51;;;;;;;10.05;6.78;;;;;;;11.78;84.68;101275.84;1735432;80;21454;-84
2022/10/26 00:25:18;;;;;;;17.27;6.80;;;;;;;11.76;84.69;101278.87;1764306;80;21842;-81
2022/10/26 00:27:44;;;;;;;11.38;7.60;;;;;;;11.73;84.62;101276.12;1724205;82;20991;-81
2022/10/26 00:30:11;;;;;;;10.80;7.00;;;;;;;11.70;84.59;101273.42;1702216;83;21023;-81
2022/10/26 00:32:38;;;;;;;14.00;7.45;;;;;;;11.65;84.62;101268.88;1710452;83;22513;-81
2022/10/26 00:35:06;;;;;;;10.32;6.72;;;;;;;11.65;84.80;101267.56;1712612;83;21042;-84
2022/10/26 00:37:33;;;;;;;13.30;7.42;;;;;;;11.68;84.87;101269.42;1708579;82;21000;-84
2022/10/26 00:39:59;;;;;;;14.85;7.67;;;;;;;11.72;84.99;101272.61;1699113;83;21007;-83
2022/10/26 00:42:26;;;;;;;16.90;6.83;;;;;;;11.77;85.07;101274.04;1698464;83;20996;-84
2022/10/26 00:45:00;;;;;;;13.90;7.00;;;;;;;11.81;85.16;101278.14;1699765;83;21711;-84
2022/10/26 00:47:40;;;;;;;17.27;7.85;;;;;;;11.87;85.17;101278.31;1684349;82;21020;-81
2022/10/26 00:50:18;;;;;;;12.63;6.95;;;;;;;11.92;85.14;101282.45;1694439;83;21388;-81
2022/10/26 00:52:45;;;;;;;15.58;7.92;;;;;;;11.99;85.14;101287.05;1687530;83;21044;-81
2022/10/26 00:55:12;;;;;;;12.23;8.00;;;;;;;12.03;85.09;101284.04;1698874;83;21798;-81
2022/10/26 00:57:39;;;;;;;12.23;7.70;;;;;;;12.05;85.10;101275.34;1698323;83;21680;-81
2022/10/26 01:00:10;;;;;;;11.90;6.80;;;;;;;12.08;85.12;101270.55;1692358;82;21014;-81
2022/10/26 01:02:37;;;;;;;11.78;7.53;;;;;;;12.09;85.07;101267.48;1694308;82;21047;-81
2022/10/26 01:05:04;;;;;;;12.23;7.12;;;;;;;12.17;85.06;101278.73;1683247;83;21035;-81
2022/10/26 01:07:31;;;;;;;11.15;7.30;;;;;;;12.21;85.06;101281.02;1693203;83;21026;-81
2022/10/26 01:09:57;;;;;;;14.03;7.25;;;;;;;12.24;85.05;101279.36;1702268;82;21733;-81
2022/10/26 01:12:24;;;;;;;17.20;6.90;;;;;;;12.28;85.04;101279.02;1707668;83;21019;-81
2022/10/26 01:14:51;;;;;;;17.30;6.90;;;;;;;12.32;85.03;101283.95;1700578;83;21020;-81
2022/10/26 01:17:46;;;;;;;13.90;6.12;;;;;;;12.33;84.99;101270.80;1710033;81;21664;-81
2022/10/26 01:20:34;;;;;;;12.10;6.30;;;;;;;12.39;84.92;101276.67;1699401;83;21018;-81
2022/10/26 01:23:27;;;;;;;12.68;6.90;;;;;;;12.42;84.92;101278.93;1695877;83;21899;-81
2022/10/26 01:26:19;;;;;;;10.90;6.37;;;;;;;12.47;84.81;101282.14;1748531;80;21595;-81
2022/10/26 01:29:12;;;;;;;14.50;6.87;;;;;;;12.48;84.75;101280.87;1745881;80;21006;-81
2022/10/26 01:31:43;;;;;;;13.98;6.37;;;;;;;12.51;84.70;101282.25;1773384;80;20962;-82
2022/10/26 01:34:17;;;;;;;11.05;6.05;;;;;;;12.54;84.71;101274.85;1756981;80;21446;-81
2022/10/26 01:36:51;;;;;;;11.75;5.78;;;;;;;12.55;84.65;101273.54;1756837;80;22472;-81
2022/10/26 01:39:37;;;;;;;15.03;6.35;;;;;;;12.59;84.60;101277.16;1746103;80;21424;-81
2022/10/26 01:42:04;;;;;;;13.85;6.45;;;;;;;12.61;84.54;101278.08;1750882;81;20986;-81
2022/10/26 01:44:41;;;;;;;10.98;5.53;;;;;;;12.62;84.52;101280.77;1773401;80;20959;-81
2022/10/26 01:47:07;;;;;;;12.65;5.70;;;;;;;12.64;84.44;101285.66;1762155;80;21404;-81
2022/10/26 01:49:45;;;;;;;10.05;5.80;;;;;;;12.64;84.36;101281.70;1736684;80;21772;-81
2022/10/26 01:52:12;;;;;;;10.90;5.35;;;;;;;12.66;84.37;101282.18;1763081;80;21376;-81
2022/10/26 01:54:39;;;;;;;16.10;6.17;;;;;;;12.67;84.32;101276.94;1745834;80;21011;-81
2022/10/26 01:57:08;;;;;;;15.90;6.67;;;;;;;12.66;84.23;101277.78;1760731;80;21456;-81
2022/10/26 02:00:04;;;;;;;14.93;6.85;;;;;;;12.65;84.19;101276.02;1716240;82;21004;-81
2022/10/26 02:03:00;;;;;;;15.45;7.22;;;;;;;12.66;84.11;101272.94;1687944;82;21748;-81
2022/10/26 02:06:18;;;;;;;12.60;5.83;;;;;;;12.62;84.00;101278.56;1714735;81;20987;-81
2022/10/26 02:08:59;;;;;;;13.93;6.58;;;;;;;12.58;83.92;101281.55;1693079;82;21042;-81
2022/10/26 02:11:45;;;;;;;12.95;7.00;;;;;;;12.55;83.89;101277.50;1697851;82;21067;-81
2022/10/26 02:14:29;;;;;;;15.23;7.97;;;;;;;12.50;83.77;101280.48;1685733;83;21536;-81
2022/10/26 02:16:59;;;;;;;14.50;7.95;;;;;;;12.44;83.73;101274.61;1696531;82;21751;-81
2022/10/26 02:19:45;;;;;;;20.23;9.20;;;;;;;12.38;83.69;101276.19;1695905;82;21014;-81
2022/10/26 02:22:17;;;;;;;17.80;9.10;;;;;;;12.32;83.67;101279.56;1701559;82;21077;-81
2022/10/26 02:24:45;;;;;;;16.25;8.20;;;;;;;12.27;83.70;101277.66;1701347;82;21015;-81
2022/10/26 02:27:19;;;;;;;17.17;8.45;;;;;;;12.20;83.67;101278.81;1752064;80;21450;-81
2022/10/26 02:29:47;;;;;;;15.38;9.48;;;;;;;12.12;83.56;101279.02;1770201;80;22520;-81
2022/10/26 02:32:13;;;;;;;13.72;9.00;;;;;;;12.03;83.57;101288.92;1762358;79;20905;-81
2022/10/26 02:34:40;;;;;;;18.98;11.03;;;;;;;11.96;83.62;101288.70;1735528;81;21525;-81
2022/10/26 02:37:08;;;;;;;18.98;10.70;;;;;;;11.93;83.74;101293.45;1756224;80;20986;-81
2022/10/26 02:39:35;;;;;;;17.17;12.00;;;;;;;11.91;83.89;101297.80;1703929;83;21385;-81
2022/10/26 02:42:04;;;;;;;16.30;11.18;;;;;;;11.87;83.92;101298.09;1694539;83;22502;-81
2022/10/26 02:44:47;;;;;;;16.32;11.25;;;;;;;11.82;83.85;101293.53;1720357;83;20983;-81
2022/10/26 02:47:16;;;;;;;16.12;12.25;;;;;;;11.77;83.83;101299.09;1678836;83;20990;-81
2022/10/26 02:49:43;;;;;;;17.60;11.68;;;;;;;11.70;83.87;101295.41;1704415;82;21476;-81
2022/10/26 02:52:30;;;;;;;20.12;12.88;;;;;;;11.62;83.91;101288.59;1734320;80;20978;-81
2022/10/26 02:55:13;;;;;;;22.17;13.03;;;;;;;11.57;83.92;101291.95;1752023;80;21728;-84
2022/10/26 02:57:41;;;;;;;19.60;13.75;;;;;;;11.51;84.01;101300.56;1767455;80;21902;-84
2022/10/26 03:00:12;;;;;;;20.17;12.80;;;;;;;11.45;84.15;101303.03;1734474;81;21518;-83
2022/10/26 03:02:39;;;;;;;19.70;13.20;;;;;;;11.42;84.29;101298.97;1761158;81;21555;-83
2022/10/26 03:05:23;;;;;;;21.05;13.50;;;;;;;11.38;84.33;101301.93;1767232;80;21403;-83
2022/10/26 03:07:50;;;;;;;19.50;13.50;;;;;;;11.34;84.46;101302.69;1771754;80;21724;-83
2022/10/26 03:10:17;;;;;;;19.25;13.38;;;;;;;11.30;84.48;101298.18;1720216;82;21001;-83
2022/10/26 03:12:44;;;;;;;20.40;13.00;;;;;;;11.26;84.53;101297.59;1769933;80;20973;-81
2022/10/26 03:15:11;;;;;;;24.52;14.55;;;;;;;11.22;84.61;101303.22;1716365;82;20999;-81
2022/10/26 03:17:38;;;;;;;18.87;13.00;;;;;;;11.17;84.57;101305.23;1720901;82;21648;-80
2022/10/26 03:20:06;;;;;;;18.50;13.13;;;;;;;11.12;84.67;101312.98;1765621;80;21681;-83
2022/10/26 03:22:33;;;;;;;21.35;15.20;;;;;;;11.07;84.81;101320.75;1747972;80;21003;-82
2022/10/26 03:25:00;;;;;;;16.87;14.18;;;;;;;11.06;85.09;101321.58;1759336;80;20974;-83
2022/10/26 03:27:27;;;;;;;21.95;13.88;;;;;;;11.12;85.35;101313.41;1737625;80;21053;-82
2022/10/26 03:29:54;;;;;;;21.80;13.70;;;;;;;11.12;85.27;101314.73;1737263;82;21667;-82
2022/10/26 03:32:20;;;;;;;16.73;12.75;;;;;;;11.09;85.20;101312.47;1727261;82;21712;-82
2022/10/26 03:34:47;;;;;;;20.10;13.70;;;;;;;11.06;85.13;101308.41;1743613;80;21070;-82
2022/10/26 03:37:14;;;;;;;18.80;12.95;;;;;;;11.03;85.11;101311.36;1757737;80;21040;-82
2022/10/26 03:39:41;;;;;;;21.60;13.88;;;;;;;10.98;85.12;101316.89;1725278;80;21068;-82
2022/10/26 03:42:07;;;;;;;17.57;12.93;;;;;;;10.95;85.15;101318.14;1762897;79;21072;-82
2022/10/26 03:44:34;;;;;;;19.40;13.03;;;;;;;10.90;85.14;101319.28;1763848;80;21731;-82
2022/10/26 03:47:01;;;;;;;19.23;12.95;;;;;;;10.85;85.22;101319.58;1698908;81;21036;-82
2022/10/26 03:49:30;;;;;;;19.85;12.93;;;;;;;10.83;85.43;101315.58;1660284;84;21105;-82
2022/10/26 03:51:57;;;;;;;21.52;14.10;;;;;;;10.82;85.48;101319.47;1745414;80;21121;-82
2022/10/26 03:54:24;;;;;;;19.90;14.05;;;;;;;10.80;85.50;101319.84;1743181;81;21066;-82
2022/10/26 03:56:51;;;;;;;24.60;15.23;;;;;;;10.77;85.44;101319.73;1749653;81;21833;-81
2022/10/26 03:59:19;;;;;;;27.00;18.62;;;;;;;10.72;85.38;101323.54;1734678;80;21109;-81
2022/10/26 04:01:45;;;;;;;27.75;16.95;;;;;;;10.68;85.41;101325.17;1737394;80;22050;-81
2022/10/26 04:04:12;;;;;;;26.05;17.73;;;;;;;10.63;85.40;101321.48;1741292;81;21982;-80
2022/10/26 04:06:39;;;;;;;30.12;18.60;;;;;;;10.60;85.40;101329.26;1743974;81;21544;-80
2022/10/26 04:09:07;;;;;;;31.68;19.57;;;;;;;10.55;85.42;101330.86;1748369;81;22818;-81
2022/10/26 04:11:33;;;;;;;37.63;21.60;;;;;;;10.54;85.61;101337.39;1734509;80;21094;-81
2022/10/26 04:14:01;;;;;;;36.85;20.77;;;;;;;10.61;85.93;101346.86;1749593;80;21145;-80
2022/10/26 04:16:27;;;;;;;31.70;20.02;;;;;;;10.70;86.09;101346.30;1757986;79;21093;-81
2022/10/26 04:18:54;;;;;;;27.98;17.55;;;;;;;10.80;86.29;101343.11;1739029;81;21468;-81
2022/10/26 04:21:25;;;;;;;23.12;17.00;;;;;;;10.91;86.38;101350.06;1760757;80;21599;-90
2022/10/26 04:24:11;;;;;;;;;;;;;;;;;;;;;
2022/10/26 04:26:34;;;;;;;21.80;15.83;;;;;;;11.08;86.31;101351.50;1738833;80;21109;-81
2022/10/26 04:29:05;;;;;;;21.42;15.38;;;;;;;11.12;86.07;101347.23;1751769;80;21053;-79
2022/10/26 04:31:33;;;;;;;20.68;14.40;;;;;;;11.12;85.97;101345.91;1759095;80;21025;-79
2022/10/26 04:33:59;;;;;;;21.27;12.90;;;;;;;11.15;86.01;101349.05;1758629;79;21732;-79
2022/10/26 04:36:29;;;;;;;25.72;13.70;;;;;;;11.17;86.02;101348.71;1722561;81;21034;-79
2022/10/26 04:38:56;;;;;;;20.92;14.75;;;;;;;11.15;85.97;101345.10;1747288;81;21006;-79
2022/10/26 04:41:23;;;;;;;20.15;11.50;;;;;;;11.12;85.88;101347.23;1766659;80;21449;-79
2022/10/26 04:43:50;;;;;;;20.75;12.28;;;;;;;11.11;85.91;101355.08;1713287;82;21050;-79
2022/10/26 04:46:16;;;;;;;25.85;12.78;;;;;;;11.09;86.05;101354.63;1759024;80;21965;-79
2022/10/26 04:48:47;;;;;;;18.50;11.53;;;;;;;11.14;86.24;101353.44;1753001;80;21052;-82
2022/10/26 04:51:16;;;;;;;25.37;11.95;;;;;;;11.23;86.55;101356.38;1726099;80;21007;-80
2022/10/26 04:53:52;;;;;;;22.22;11.43;;;;;;;11.36;86.65;101360.30;1755424;80;20987;-82
2022/10/26 04:56:13;;;;;;;18.90;13.50;;;;;;;11.49;86.69;101370.81;1694179;82;22139;-82
2022/10/26 04:58:40;;;;;;;23.52;15.58;;;;;;;11.60;86.67;101363.20;1748896;80;22419;-80
2022/10/26 05:01:07;;;;;;;24.98;15.78;;;;;;;11.70;86.59;101367.93;1749083;79;21001;-82
2022/10/26 05:03:34;;;;;;;22.67;15.10;;;;;;;11.78;86.50;101365.52;1748850;80;21433;-80
2022/10/26 05:06:01;;;;;;;22.87;15.83;;;;;;;11.86;86.39;101366.63;1766092;80;21391;-80
2022/10/26 05:08:32;;;;;;;19.15;14.78;;;;;;;11.94;86.31;101366.92;1746577;80;21074;-80
2022/10/26 05:10:57;;;;;;;24.95;17.27;;;;;;;12.01;86.19;101374.13;1745205;80;22011;-83
2022/10/26 05:13:23;;;;;;;28.42;16.60;;;;;;;12.07;86.11;101376.98;1743167;80;20987;-82
2022/10/26 05:15:53;;;;;;;23.30;15.90;;;;;;;12.14;86.03;101376.27;1744565;80;21006;-82
2022/10/26 05:18:20;;;;;;;22.85;18.12;;;;;;;12.18;85.88;101369.34;1751551;80;22215;-81
2022/10/26 05:20:48;;;;;;;27.17;16.52;;;;;;;12.23;85.86;101378.29;1735043;80;21609;-82
2022/10/26 05:23:17;;;;;;;24.12;16.20;;;;;;;12.27;85.70;101372.23;1744719;80;21758;-82
2022/10/26 05:25:44;;;;;;;27.22;17.02;;;;;;;12.31;85.68;101369.27;1746903;80;21136;-82
2022/10/26 05:28:14;;;;;;;24.72;15.38;;;;;;;12.34;85.47;101376.84;1746925;80;21142;-82
2022/10/26 05:30:44;;;;;;;23.85;16.12;;;;;;;12.32;85.26;101383.83;1701522;81;21133;-82
2022/10/26 05:33:11;;;;;;;20.25;15.38;;;;;;;12.32;85.22;101378.55;1701154;83;21069;-82
2022/10/26 05:35:38;;;;;;;25.85;16.02;;;;;;;12.32;85.18;101378.98;1718386;81;21728;-81
2022/10/26 05:38:17;;;;;;;23.45;15.55;;;;;;;12.35;85.17;101388.29;1723537;81;21061;-82
2022/10/26 05:40:49;;;;;;;24.15;15.32;;;;;;;12.37;85.15;101390.55;1740703;81;21073;-82
2022/10/26 05:43:17;;;;;;;24.67;15.88;;;;;;;12.38;85.13;101391.91;1750245;81;21089;-82
2022/10/26 05:45:44;;;;;;;24.70;15.48;;;;;;;12.41;85.08;101388.48;1750758;81;21073;-82
2022/10/26 05:48:10;;;;;;;20.68;14.20;;;;;;;12.44;84.99;101388.55;1750401;81;21722;-82
2022/10/26 05:50:37;;;;;;;25.12;14.18;;;;;;;12.43;84.80;101394.27;1750765;81;21065;-81
2022/10/26 05:53:04;;;;;;;22.02;14.70;;;;;;;12.39;84.58;101398.11;1719516;81;21045;-81
2022/10/26 05:55:32;;;;;;;20.30;13.35;;;;;;;12.32;84.48;101397.47;1740913;81;22208;-82
2022/10/26 05:57:59;;;;;;;21.20;14.38;;;;;;;12.24;84.20;101397.25;1751002;81;21084;-82
2022/10/26 06:00:27;;;;;;;19.42;12.07;;;;;;;12.11;84.15;101396.00;1750554;81;21734;-82
2022/10/26 06:03:17;;;;;;;19.57;12.10;;;;;;;12.01;84.03;101395.24;1732852;81;21589;-82
2022/10/26 06:05:54;;;;;;;20.30;11.68;;;;;;;11.90;84.07;101397.59;1716080;82;21074;-82
2022/10/26 06:08:22;;;;;;;19.32;11.50;;;;;;;11.81;84.08;101403.87;1700902;83;21108;-82
2022/10/26 06:10:50;;;;;;;21.55;10.98;;;;;;;11.75;84.20;101403.26;1740976;81;21595;-82
2022/10/26 06:13:17;;;;;;;14.15;10.60;;;;;;;11.69;84.20;101404.36;1750809;81;21734;-82
2022/10/26 06:16:38;;;;;;;16.12;11.20;;;;;;;11.63;84.25;101403.75;1750790;81;20994;-82
2022/10/26 06:19:19;;;;;;;20.17;10.40;;;;;;;11.60;84.33;101405.00;1706019;82;21070;-82
2022/10/26 06:22:12;;;;;;;13.43;8.58;;;;;;;11.55;84.39;101407.91;1715796;82;21376;-82
2022/10/26 06:24:52;;;;;;;15.28;8.40;;;;;;;11.53;84.50;101402.13;1729029;81;20931;-82
2022/10/26 06:27:53;;;;;;;13.90;6.47;;;;;;;11.51;84.58;101408.66;1737528;81;21764;-82
2022/10/26 06:30:22;;;;;;;11.18;6.28;;;;;;;11.51;84.67;101414.36;1748988;81;21622;-81
2022/10/26 06:32:48;;;;;;;11.20;6.45;;;;;;;11.52;84.78;101412.18;1728501;80;21077;-81
2022/10/26 06:35:36;;;;;;;11.33;6.17;;;;;;;11.55;84.85;101413.61;1704300;81;21782;-82
2022/10/26 06:38:07;;;;;;;11.20;6.42;;;;;;;11.56;84.83;101411.42;1706874;81;21074;-82
2022/10/26 06:40:35;;;;;;;13.22;6.97;;;;;;;11.58;84.88;101417.23;1743432;81;22594;-81
2022/10/26 06:43:02;;;;;;;12.28;7.17;;;;;;;11.63;84.95;101425.28;1749971;81;21073;-81
2022/10/26 06:45:30;;;;;;;15.60;7.60;;;;;;;11.67;85.00;101425.44;1727893;81;21093;-81
2022/10/26 06:48:07;;;;;;;12.07;7.45;;;;;;;11.70;84.93;101429.91;1704051;82;21086;-82
2022/10/26 06:50:47;;;;;;;18.92;7.60;;;;;;;11.74;84.92;101429.58;1729621;81;21077;-81
2022/10/26 06:53:35;;;;;;;11.90;6.05;;;;;;;11.77;84.96;101432.29;1710597;81;21761;-81
2022/10/26 06:56:03;;;;;;;12.35;6.37;;;;;;;11.82;84.97;101435.97;1722592;81;21039;-81
2022/10/26 06:58:34;;;;;;;12.90;6.00;;;;;;;11.85;84.94;101434.33;1713059;82;21387;-81
2022/10/26 07:01:01;;;;;;;13.05;4.85;;;;;;;11.90;84.92;101445.08;1740182;82;20983;-81
2022/10/26 07:03:28;;;;;;;10.72;4.62;;;;;;;11.96;84.89;101447.00;1733725;81;21620;-81
2022/10/26 07:05:55;;;;;;;13.20;4.85;;;;;;;12.00;84.82;101449.77;1746692;82;21709;-81
2022/10/26 07:08:22;;;;;;;9.60;4.87;;;;;;;12.05;84.78;101449.92;1735433;81;20986;-81
2022/10/26 07:10:49;;;;;;;9.03;5.12;;;;;;;12.10;84.77;101454.89;1744455;80;20954;-81
2022/10/26 07:13:16;;;;;;;9.43;4.50;;;;;;;12.16;84.77;101452.45;1747412;81;21022;-81
2022/10/26 07:15:43;;;;;;;7.65;3.85;;;;;;;12.22;84.67;101457.91;1746823;80;21010;-81
2022/10/26 07:18:10;;;;;;;8.50;4.62;;;;;;;12.29;84.54;101460.72;1746777;82;21729;-81
2022/10/26 07:20:39;;;;;;;10.58;4.10;;;;;;;12.35;84.50;101456.53;1746674;82;21433;-81
2022/10/26 07:23:06;;;;;;;12.28;4.60;;;;;;;12.42;84.39;101457.58;1746780;82;20999;-81
2022/10/26 07:25:34;;;;;;;8.28;3.50;;;;;;;12.49;84.34;101464.84;1728154;82;21143;-81
2022/10/26 07:28:00;;;;;;;11.73;3.95;;;;;;;12.57;84.25;101463.73;1743613;82;21623;-81
2022/10/26 07:30:28;;;;;;;11.50;6.03;;;;;;;12.65;84.22;101462.22;1749621;79;22451;-81
2022/10/26 07:33:03;;;;;;;11.08;5.05;;;;;;;12.71;84.10;101457.09;1753617;80;20980;-81
2022/10/26 07:35:30;;;;;;;13.58;4.97;;;;;;;12.76;83.93;101458.53;1772976;80;21372;-81
2022/10/26 07:37:58;;;;;;;11.50;5.67;;;;;;;12.80;83.87;101461.72;1783691;80;21401;-81
2022/10/26 07:40:24;;;;;;;11.00;5.00;;;;;;;12.84;83.84;101461.86;1746208;82;21001;-81
2022/10/26 07:42:51;;;;;;;16.93;6.97;;;;;;;12.88;83.84;101460.20;1690929;83;21917;-81
2022/10/26 07:45:18;;;;;;;10.95;5.80;;;;;;;12.97;83.83;101464.41;1734417;82;21023;-81
2022/10/26 07:47:45;;;;;;;17.23;6.00;;;;;;;13.02;83.62;101474.65;1746446;81;21018;-81
2022/10/26 07:50:12;;;;;;;13.90;6.20;;;;;;;13.08;83.54;101474.36;1746549;82;21070;-81
2022/10/26 07:52:40;;;;;;;14.58;6.70;;;;;;;13.12;83.53;101473.57;1724604;82;21397;-81
2022/10/26 07:55:10;;;;;;;14.93;5.83;;;;;;;13.15;83.34;101477.63;1699641;82;21737;-81
2022/10/26 07:57:37;;;;;;;13.70;6.47;;;;;;;13.19;83.27;101480.41;1746451;82;21002;-81
2022/10/26 08:00:05;;;;;;;12.18;7.45;;;;;;;13.23;83.29;101478.31;1732997;81;21022;-81
2022/10/26 08:02:32;;;;;;;15.10;6.60;;;;;;;13.29;83.23;101484.58;1704154;81;21007;-81
2022/10/26 08:04:59;;;;;;;12.68;5.30;;;;;;;13.32;83.19;101485.59;1742476;80;21999;-81
2022/10/26 08:07:26;;;;;;;16.45;5.80;;;;;;;13.37;83.06;101483.97;1740583;81;21676;-81
2022/10/26 08:09:53;;;;;;;11.73;5.33;;;;;;;13.43;82.97;101487.63;1738857;81;20987;-81
2022/10/26 08:12:19;;;;;;;13.88;6.33;;;;;;;13.48;82.89;101493.50;1752342;81;21002;-81
2022/10/26 08:14:46;;;;;;;16.35;6.50;;;;;;;13.54;82.78;101496.29;1727817;81;21021;-81
2022/10/26 08:17:13;;;;;;;11.78;6.50;;;;;;;13.59;82.61;101503.03;1736589;81;20998;-81
2022/10/26 08:19:40;;;;;;;10.95;6.47;;;;;;;13.64;82.54;101504.02;1752306;81;21705;-81
2022/10/26 08:22:08;;;;;;;17.50;7.45;;;;;;;13.69;82.39;101494.45;1752424;81;20990;-81
2022/10/26 08:24:35;;;;;;;15.45;6.70;;;;;;;13.77;82.32;101494.63;1734779;81;20998;-81
2022/10/26 08:27:02;;;;;;;13.62;6.53;;;;;;;13.84;82.30;101499.22;1723964;82;20980;-81
2022/10/26 08:29:29;;;;;;;12.82;6.80;;;;;;;13.93;82.16;101497.22;1727402;81;21417;-81
2022/10/26 08:31:56;;;;;;;13.62;5.83;;;;;;;14.02;82.06;101497.44;1749194;81;21727;-81
2022/10/26 08:34:23;;;;;;;12.13;6.30;;;;;;;14.15;81.96;101501.23;1705639;81;21104;-81
2022/10/26 08:36:50;;;;;;;13.03;7.25;;;;;;;14.24;81.56;101504.52;1741627;81;20985;-81
2022/10/26 08:39:17;;;;;;;10.23;5.92;;;;;;;14.33;81.44;101509.59;1751931;80;21005;-81
2022/10/26 08:41:45;;;;;;;12.00;6.30;;;;;;;14.42;81.37;101506.69;1752406;81;21010;-81
2022/10/26 08:44:38;;;;;;;13.08;6.20;;;;;;;14.47;81.07;101511.23;1752104;81;21651;-82
2022/10/26 08:47:19;;;;;;;13.70;6.83;;;;;;;14.58;81.03;101511.05;1738835;82;21043;-81
2022/10/26 08:49:51;;;;;;;10.20;5.53;;;;;;;14.84;81.13;101508.45;1706419;81;21348;-81
2022/10/26 08:52:23;;;;;;;15.48;7.33;;;;;;;15.08;80.85;101513.34;1709707;82;21110;-81
2022/10/26 08:54:56;;;;;;;15.18;6.12;;;;;;;15.36;80.79;101512.08;1705611;82;21610;-81
2022/10/26 08:57:28;;;;;;;14.10;5.12;;;;;;;15.67;80.68;101513.50;1738722;82;21953;-81
2022/10/26 09:00:02;;;;;;;12.80;7.75;;;;;;;15.92;80.16;101518.78;1699150;82;21011;-81
2022/10/26 09:02:31;;;;;;;10.45;5.97;;;;;;;16.04;79.49;101519.39;1683627;84;21628;-81
2022/10/26 09:04:58;;;;;;;10.68;6.22;;;;;;;16.09;78.82;101513.72;1687249;83;21553;-82
2022/10/26 09:07:51;;;;;;;19.20;6.55;;;;;;;16.09;78.59;101519.03;1704324;83;21493;-81
2022/10/26 09:10:38;;;;;;;14.07;4.95;;;;;;;16.12;78.32;101518.17;1687196;83;21746;-81
2022/10/26 09:13:23;;;;;;;10.60;5.17;;;;;;;16.11;77.94;101531.01;1676745;82;21007;-81
2022/10/26 09:16:21;;;;;;;11.80;4.42;;;;;;;16.02;77.58;101526.44;1711832;82;20995;-81
2022/10/26 09:19:22;;;;;;;8.60;3.52;;;;;;;15.94;77.09;101528.10;1691320;83;21031;-81
2022/10/26 09:22:03;;;;;;;8.58;3.47;;;;;;;15.83;76.94;101533.67;1722420;82;21071;-81
2022/10/26 09:24:35;;;;;;;8.25;4.35;;;;;;;15.83;77.05;101531.91;1704451;83;21741;-81
2022/10/26 09:27:22;;;;;;;7.65;4.00;;;;;;;15.96;77.10;101536.98;1701113;82;21392;-81
2022/10/26 09:29:49;;;;;;;7.83;3.90;;;;;;;16.09;76.98;101534.08;1701495;83;21067;-81
2022/10/26 09:32:32;;;;;;;9.78;4.30;;;;;;;16.27;76.73;101543.66;1712339;83;21119;-81
2022/10/26 09:35:02;;;;;;;9.38;4.58;;;;;;;16.33;76.13;101546.38;1710350;83;21910;-82
2022/10/26 09:37:36;;;;;;;7.72;3.35;;;;;;;16.31;75.65;101545.47;1697984;83;22895;-82
2022/10/26 09:40:11;;;;;;;11.75;3.70;;;;;;;16.31;75.23;101541.48;1695216;83;21059;-81
2022/10/26 09:43:16;;;;;;;8.15;3.55;;;;;;;16.28;75.11;101546.75;1708359;83;21095;-81
2022/10/26 09:45:46;;;;;;;7.17;3.30;;;;;;;16.28;75.02;101537.89;1707353;83;24428;-81
2022/10/26 09:48:18;;;;;;;9.80;3.83;;;;;;;16.39;74.96;101540.70;1686282;83;21023;-82
2022/10/26 09:50:47;;;;;;;8.43;3.35;;;;;;;16.49;74.98;101535.96;1708463;82;21989;-82
2022/10/26 09:53:14;;;;;;;5.33;2.80;;;;;;;16.64;74.67;101540.14;1740605;81;21058;-81
2022/10/26 09:55:45;;;;;;;14.40;5.70;;;;;;;16.77;74.40;101547.83;1763919;80;20983;-82
2022/10/26 09:58:19;;;;;;;7.30;3.42;;;;;;;16.79;73.71;101550.07;1740314;80;21329;-81
2022/10/26 10:00:46;;;;;;;7.22;3.08;;;;;;;16.76;73.49;101548.73;1738453;81;21093;-82
2022/10/26 10:03:30;;;;;;;7.72;2.70;;;;;;;16.70;73.12;101548.63;1724791;82;22483;-81
2022/10/26 10:06:17;;;;;;;19.02;4.62;;;;;;;16.62;72.79;101550.30;1738817;82;21980;-81
2022/10/26 10:08:45;;;;;;;5.10;2.75;;;;;;;16.46;72.32;101551.44;1728410;82;21052;-81
2022/10/26 10:11:13;;;;;;;9.40;5.25;;;;;;;16.36;72.59;101548.18;1659927;83;21438;-81
2022/10/26 10:13:43;;;;;;;14.35;4.40;;;;;;;16.33;72.52;101538.41;1706003;83;21058;-81
2022/10/26 10:16:13;;;;;;;10.72;3.40;;;;;;;16.28;72.51;101553.39;1725751;81;21726;-81
2022/10/26 10:18:41;;;;;;;10.85;3.40;;;;;;;16.23;72.51;101548.87;1736351;80;21430;-81
2022/10/26 10:21:08;;;;;;;6.80;2.90;;;;;;;16.27;72.80;101545.39;1775642;80;20974;-81
2022/10/26 10:23:43;;;;;;;8.88;2.90;;;;;;;16.34;72.66;101540.62;1727974;81;21075;-82
2022/10/26 10:26:10;;;;;;;9.48;3.37;;;;;;;16.43;72.68;101540.75;1640633;86;21068;-82
2022/10/26 10:28:37;;;;;;;7.53;2.92;;;;;;;16.55;72.50;101549.31;1637298;86;22541;-81
2022/10/26 10:31:07;;;;;;;6.45;3.40;;;;;;;16.63;72.34;101548.09;1636878;87;21447;-82
2022/10/26 10:33:41;;;;;;;9.38;3.20;;;;;;;16.63;71.98;101550.74;1639280;86;21102;-81
2022/10/26 10:36:12;;;;;;;8.53;3.37;;;;;;;16.57;71.68;101556.88;1640799;86;21175;-82
2022/10/26 10:38:40;;;;;;;6.03;3.35;;;;;;;16.48;71.59;101560.77;1636756;87;21901;-81
2022/10/26 10:41:24;;;;;;;10.58;3.52;;;;;;;16.45;71.58;101571.34;1636829;86;21750;-81
2022/10/26 10:44:08;;;;;;;5.42;2.45;;;;;;;16.36;71.36;101565.45;1636957;87;21012;-81
2022/10/26 10:46:36;;;;;;;6.72;2.80;;;;;;;16.26;71.25;101568.42;1637329;87;21139;-81
2022/10/26 10:49:05;;;;;;;7.50;2.90;;;;;;;16.17;71.06;101564.30;1638377;87;21046;-81
2022/10/26 10:51:38;;;;;;;10.03;3.83;;;;;;;16.07;71.11;101567.69;1637244;87;22239;-81
2022/10/26 10:54:09;;;;;;;11.75;4.90;;;;;;;16.10;71.14;101565.98;1626936;86;21937;-81
2022/10/26 10:56:51;;;;;;;17.07;8.50;;;;;;;16.27;71.37;101572.87;1599846;87;21031;-82
2022/10/26 10:59:44;;;;;;;7.75;4.05;;;;;;;16.46;71.23;101573.11;1637044;87;21016;-81
2022/10/26 11:02:55;;;;;;;8.83;3.60;;;;;;;16.58;70.89;101572.41;1639019;87;21050;-81
2022/10/26 11:06:17;;;;;;;12.35;4.05;;;;;;;16.66;70.72;101575.60;1756784;80;21108;-81
2022/10/26 11:08:58;;;;;;;11.15;3.10;;;;;;;16.68;70.36;101577.84;1744260;80;21749;-82
2022/10/26 11:11:44;;;;;;;11.75;2.50;;;;;;;16.68;70.31;101584.94;1772015;80;21130;-81
2022/10/26 11:14:15;;;;;;;7.70;3.02;;;;;;;16.74;70.46;101587.66;1767794;80;21073;-82
2022/10/26 11:16:49;;;;;;;7.92;3.02;;;;;;;16.82;70.16;101583.80;1775134;80;21113;-81
2022/10/26 11:19:22;;;;;;;;;;;;;;;16.97;70.21;101585.34;1756168;81;21146;-82
2022/10/26 11:21:53;;;;;;;6.30;2.75;;;;;;;17.26;69.84;101584.78;1779889;80;21828;-82
2022/10/26 11:24:34;;;;;;;6.60;2.45;;;;;;;17.26;69.84;101584.78;1765621;80;21062;-82
2022/10/26 11:27:16;;;;;;;8.35;3.10;;;;;;;17.43;69.68;101594.27;1747024;80;21056;-81
2022/10/26 11:29:54;;;;;;;7.65;2.30;;;;;;;17.56;69.31;101596.17;1770626;80;21711;-81
2022/10/26 11:32:25;;;;;;;6.00;2.55;;;;;;;17.66;69.01;101601.14;1698063;82;22084;-81
2022/10/26 11:35:12;;;;;;;7.58;3.05;;;;;;;17.68;68.82;101601.62;1760288;80;21813;-81
2022/10/26 11:38:25;;;;;;;6.70;2.90;;;;;;;17.71;68.64;101598.53;1774645;79;21007;-81
2022/10/26 11:41:11;;;;;;;15.45;3.10;;;;;;;17.63;68.47;101596.69;1722343;82;21059;-81